CYWG/YWG METAR and TAF weather

Enter ICAO airport designator
Station Type Date Time Source
CYWG METAR 2019/08/22 02:00 UTC NOAA

CYWG 220200Z 03009KT 15SM BKN060 16/11 A3009 RMK SC6 SLP196 DENSITY ALT 1000FT


Station Type Date Time Source
CYWG Decoded METAR 2019/08/22 02:00 UTC NOAA

Station name not available
Aug 21, 2019 - 10:00 PM EDT / 2019.08.22 0200 UTC
Wind: from the NNE (030 degrees) at 10 MPH (9 KT):0
Visibility: 15 mile(s):0
Sky conditions: mostly cloudy
Temperature: 60 F (16 C)
Dew Point: 51 F (11 C)
Relative Humidity: 72%
Pressure (altimeter): 30.09 in. Hg (1018 hPa)
ob: CYWG 220200Z 03009KT 15SM BKN060 16/11 A3009 RMK SC6 SLP196 DENSITY ALT 1000FT
cycle: 2

Station Type Date Time Source
CYWG TAF 2019/08/21 18:48 UTC NOAA

TAF CYWG 211744Z 2118/2218 34012G22KT P6SM BKN050
BECMG 2122/2124 01010KT
FM220400 01007KT P6SM SCT050
FM221000 09008KT P6SM FEW030
RMK NXT FCST BY 220000Z

Example: see airport list